Time;durP1;ratioP1;P1;durP2;ratioP2;P2;SDS_P1;SDS_P2;PMS_P1;PMS_P2;Temp;Humidity;BMP_temperature;BMP_pressure;BME280_temperature;BME280_humidity;BME280_pressure;Samples;Min_cycle;Max_cycle;Signal;HPM_P1;HPM_P2
2021/04/30 00:00:21;;;;;;;37.58;21.00;;;;;;;;;;5053605;28;20041;-81
2021/04/30 00:02:47;;;;;;;31.92;19.92;;;;;;;;;;5052237;28;20664;-81
2021/04/30 00:05:13;;;;;;;34.05;20.42;;;;;;;;;;5052292;28;20037;-80
2021/04/30 00:07:39;;;;;;;33.30;19.52;;;;;;;;;;5052179;28;20056;-81
2021/04/30 00:10:06;;;;;;;34.53;20.35;;;;;;;;;;5035755;28;20033;-79
2021/04/30 00:12:32;;;;;;;36.38;19.27;;;;;;;;;;5052190;28;20037;-79
2021/04/30 00:14:58;;;;;;;34.08;21.42;;;;;;;;;;5052376;28;20037;-81
2021/04/30 00:17:24;;;;;;;33.03;20.20;;;;;;;;;;5053233;28;20068;-81
2021/04/30 00:19:50;;;;;;;37.25;20.45;;;;;;;;;;5053235;28;20037;-81
2021/04/30 00:22:16;;;;;;;37.28;21.42;;;;;;;;;;5053241;28;20032;-81
2021/04/30 00:24:42;;;;;;;37.17;21.40;;;;;;;;;;5053167;28;20396;-81
2021/04/30 00:27:08;;;;;;;40.10;21.70;;;;;;;;;;5051721;28;20041;-81
2021/04/30 00:29:34;;;;;;;34.72;20.20;;;;;;;;;;5051921;28;20123;-80
2021/04/30 00:32:00;;;;;;;36.35;20.27;;;;;;;;;;5051737;28;20082;-80
2021/04/30 00:34:26;;;;;;;39.47;21.42;;;;;;;;;;5053113;28;20037;-81
2021/04/30 00:36:52;;;;;;;35.47;20.38;;;;;;;;;;5051502;28;20040;-81
2021/04/30 00:39:18;;;;;;;36.63;19.90;;;;;;;;;;5052933;28;20044;-81
2021/04/30 00:41:44;;;;;;;31.50;18.95;;;;;;;;;;5051618;28;20445;-81
2021/04/30 00:44:11;;;;;;;30.85;18.40;;;;;;;;;;5052834;28;20041;-81
2021/04/30 00:46:37;;;;;;;33.72;20.15;;;;;;;;;;5051881;28;20409;-81
2021/04/30 00:49:04;;;;;;;29.95;18.77;;;;;;;;;;5052776;28;20548;-81
2021/04/30 00:51:30;;;;;;;30.90;19.38;;;;;;;;;;5051607;28;20041;-81
2021/04/30 00:53:56;;;;;;;32.80;17.60;;;;;;;;;;5052742;28;20381;-82
2021/04/30 00:56:22;;;;;;;30.95;18.08;;;;;;;;;;5052464;28;20086;-81
2021/04/30 00:58:48;;;;;;;34.42;19.30;;;;;;;;;;5034824;28;20094;-81
2021/04/30 01:01:15;;;;;;;33.17;18.85;;;;;;;;;;5051169;28;20037;-81
2021/04/30 01:03:44;;;;;;;30.88;18.63;;;;;;;;;;5052427;28;20040;-81
2021/04/30 01:06:12;;;;;;;29.40;17.13;;;;;;;;;;5050992;28;20452;-81
2021/04/30 01:08:38;;;;;;;32.08;17.88;;;;;;;;;;5052366;28;20052;-81
2021/04/30 01:11:04;;;;;;;29.52;18.02;;;;;;;;;;5052297;28;20036;-81
2021/04/30 01:13:30;;;;;;;29.52;17.40;;;;;;;;;;5051187;28;20041;-82
2021/04/30 01:15:56;;;;;;;29.92;17.73;;;;;;;;;;5050893;28;20033;-81
2021/04/30 01:18:22;;;;;;;26.98;16.75;;;;;;;;;;5052209;28;20086;-82
2021/04/30 01:20:48;;;;;;;29.35;17.52;;;;;;;;;;5034530;28;20048;-82
2021/04/30 01:23:14;;;;;;;27.98;17.17;;;;;;;;;;5050988;28;20461;-82
2021/04/30 01:25:40;;;;;;;28.05;17.73;;;;;;;;;;5050981;28;20049;-82
2021/04/30 01:28:06;;;;;;;26.40;17.40;;;;;;;;;;5050753;28;20492;-82
2021/04/30 01:30:33;;;;;;;28.05;17.90;;;;;;;;;;5050879;28;20060;-82
2021/04/30 01:32:59;;;;;;;25.00;16.83;;;;;;;;;;5052146;28;20495;-82
2021/04/30 01:35:26;;;;;;;26.42;16.15;;;;;;;;;;5050865;28;20037;-82
2021/04/30 01:37:53;;;;;;;22.95;16.38;;;;;;;;;;5050612;28;20070;-82
2021/04/30 01:40:20;;;;;;;25.65;15.35;;;;;;;;;;5034304;28;20060;-82
2021/04/30 01:42:56;;;;;;;24.20;15.05;;;;;;;;;;5050676;28;20041;-82
2021/04/30 01:45:22;;;;;;;24.85;15.32;;;;;;;;;;5034244;28;20044;-82
2021/04/30 01:47:48;;;;;;;24.42;15.43;;;;;;;;;;5034097;28;20068;-82
2021/04/30 01:50:14;;;;;;;25.27;15.98;;;;;;;;;;5051887;28;20067;-83
2021/04/30 01:52:40;;;;;;;25.77;15.73;;;;;;;;;;5051880;28;20408;-82
2021/04/30 01:55:06;;;;;;;23.45;14.57;;;;;;;;;;5050843;28;20043;-82
2021/04/30 01:57:34;;;;;;;25.90;15.93;;;;;;;;;;5050615;28;20044;-82
2021/04/30 02:00:00;;;;;;;24.73;16.08;;;;;;;;;;5037253;28;20049;-82
2021/04/30 02:02:28;;;;;;;28.83;16.25;;;;;;;;;;5038231;28;20045;-82
2021/04/30 02:04:53;;;;;;;26.10;16.17;;;;;;;;;;5055830;28;20539;-81
2021/04/30 02:07:19;;;;;;;31.30;18.17;;;;;;;;;;5055549;28;20064;-82
2021/04/30 02:09:45;;;;;;;24.77;15.52;;;;;;;;;;5055676;28;20055;-82
2021/04/30 02:12:15;;;;;;;26.85;17.13;;;;;;;;;;5054355;28;20166;-82
2021/04/30 02:14:41;;;;;;;25.27;16.45;;;;;;;;;;5054374;28;20128;-82
2021/04/30 02:17:07;;;;;;;24.38;15.77;;;;;;;;;;5037755;28;20115;-82
2021/04/30 02:19:33;;;;;;;26.02;15.73;;;;;;;;;;5055567;28;20040;-82
2021/04/30 02:21:59;;;;;;;23.98;15.18;;;;;;;;;;5055406;28;20037;-81
2021/04/30 02:24:25;;;;;;;26.40;16.23;;;;;;;;;;5055331;28;20048;-81
2021/04/30 02:26:51;;;;;;;25.33;14.55;;;;;;;;;;5055079;28;20048;-81
2021/04/30 02:29:17;;;;;;;23.23;15.65;;;;;;;;;;5037614;28;20041;-81
2021/04/30 02:31:43;;;;;;;26.92;16.30;;;;;;;;;;5055276;28;20404;-82
2021/04/30 02:34:09;;;;;;;26.42;15.25;;;;;;;;;;5055177;28;20044;-81
2021/04/30 02:36:35;;;;;;;26.70;16.70;;;;;;;;;;5055187;28;20052;-81
2021/04/30 02:39:01;;;;;;;27.33;16.30;;;;;;;;;;5053709;28;20098;-81
2021/04/30 02:41:27;;;;;;;27.65;16.77;;;;;;;;;;5053902;28;20033;-81
2021/04/30 02:43:53;;;;;;;26.65;16.85;;;;;;;;;;5053873;28;20541;-81
2021/04/30 02:46:19;;;;;;;31.08;18.25;;;;;;;;;;5054802;28;20045;-81
2021/04/30 02:48:48;;;;;;;30.38;18.15;;;;;;;;;;5055006;28;20032;-82
2021/04/30 02:51:14;;;;;;;27.38;17.55;;;;;;;;;;5053674;28;20066;-82
2021/04/30 02:53:40;;;;;;;25.08;16.58;;;;;;;;;;5053474;28;20385;-81
2021/04/30 02:56:06;;;;;;;26.50;16.85;;;;;;;;;;5055159;28;20033;-82
2021/04/30 02:58:32;;;;;;;30.70;17.45;;;;;;;;;;5054872;28;20276;-82
2021/04/30 03:00:59;;;;;;;30.50;18.40;;;;;;;;;;5053658;28;20029;-82
2021/04/30 03:03:27;;;;;;;32.63;19.40;;;;;;;;;;5053458;28;20284;-82
2021/04/30 03:05:53;;;;;;;32.80;19.70;;;;;;;;;;5054634;28;20037;-82
2021/04/30 03:08:19;;;;;;;36.72;20.58;;;;;;;;;;5054420;28;20033;-81
2021/04/30 03:10:45;;;;;;;34.78;19.70;;;;;;;;;;5054096;28;20120;-82
2021/04/30 03:13:11;;;;;;;31.13;17.98;;;;;;;;;;5054511;28;20037;-81
2021/04/30 03:15:37;;;;;;;30.15;17.13;;;;;;;;;;5053441;28;20035;-81
2021/04/30 03:18:03;;;;;;;27.17;18.08;;;;;;;;;;5053218;28;20041;-81
2021/04/30 03:20:29;;;;;;;30.10;17.83;;;;;;;;;;5054431;28;20033;-81
2021/04/30 03:22:55;;;;;;;30.70;19.30;;;;;;;;;;5053048;28;20048;-81
2021/04/30 03:25:21;;;;;;;25.17;16.80;;;;;;;;;;5053127;28;20507;-81
2021/04/30 03:27:47;;;;;;;29.45;17.77;;;;;;;;;;5052920;28;20032;-81
2021/04/30 03:30:13;;;;;;;33.22;18.00;;;;;;;;;;5053008;28;20041;-80
2021/04/30 03:32:39;;;;;;;31.42;18.70;;;;;;;;;;5054145;28;20485;-79
2021/04/30 03:35:06;;;;;;;26.77;17.95;;;;;;;;;;5053078;28;20048;-82
2021/04/30 03:37:32;;;;;;;29.30;17.48;;;;;;;;;;5052524;28;20508;-81
2021/04/30 03:39:58;;;;;;;28.45;18.05;;;;;;;;;;5054070;28;20069;-81
2021/04/30 03:42:24;;;;;;;30.30;17.35;;;;;;;;;;5053935;28;20476;-82
2021/04/30 03:44:50;;;;;;;32.53;17.05;;;;;;;;;;5036279;28;20037;-83
2021/04/30 03:47:16;;;;;;;25.58;17.48;;;;;;;;;;5019427;28;20373;-83
2021/04/30 03:49:42;;;;;;;28.02;16.65;;;;;;;;;;5052642;28;20041;-82
2021/04/30 03:52:08;;;;;;;31.67;18.13;;;;;;;;;;5052661;28;20480;-82
2021/04/30 03:54:34;;;;;;;23.80;15.88;;;;;;;;;;5052530;28;20112;-82
2021/04/30 03:57:00;;;;;;;27.42;17.25;;;;;;;;;;5035836;28;20053;-82
2021/04/30 03:59:26;;;;;;;24.40;16.17;;;;;;;;;;5052448;28;20040;-83
2021/04/30 04:01:52;;;;;;;25.10;14.80;;;;;;;;;;5035869;28;20045;-83
2021/04/30 04:04:20;;;;;;;25.23;16.08;;;;;;;;;;5052349;28;20045;-83
2021/04/30 04:06:46;;;;;;;24.30;15.45;;;;;;;;;;5052047;28;20032;-82
2021/04/30 04:09:12;;;;;;;30.27;17.70;;;;;;;;;;5052247;28;20444;-81
2021/04/30 04:11:38;;;;;;;25.90;16.50;;;;;;;;;;5052351;28;20069;-81
2021/04/30 04:14:04;;;;;;;15.57;11.00;;;;;;;;;;5052176;28;20040;-83
2021/04/30 04:16:30;;;;;;;25.52;15.43;;;;;;;;;;5052090;28;20052;-83
2021/04/30 04:18:56;;;;;;;33.60;18.77;;;;;;;;;;5035515;28;20086;-83
2021/04/30 04:21:22;;;;;;;29.85;18.88;;;;;;;;;;5034533;28;20056;-82
2021/04/30 04:23:48;;;;;;;31.17;18.65;;;;;;;;;;5053204;28;20040;-83
2021/04/30 04:26:14;;;;;;;25.42;16.70;;;;;;;;;;5051733;28;20040;-82
2021/04/30 04:28:40;;;;;;;31.08;17.58;;;;;;;;;;5051987;28;20037;-83
2021/04/30 04:31:06;;;;;;;29.20;18.25;;;;;;;;;;5053013;28;20473;-83
2021/04/30 04:33:32;;;;;;;30.98;18.20;;;;;;;;;;5052024;28;20029;-81
2021/04/30 04:35:58;;;;;;;37.90;20.08;;;;;;;;;;5051667;28;20120;-81
2021/04/30 04:38:26;;;;;;;32.92;20.10;;;;;;;;;;5051470;28;20183;-82
2021/04/30 04:40:52;;;;;;;35.65;19.67;;;;;;;;;;5051694;28;20037;-82
2021/04/30 04:43:18;;;;;;;34.88;19.15;;;;;;;;;;5035105;28;20246;-81
2021/04/30 04:45:44;;;;;;;32.78;19.08;;;;;;;;;;5051627;28;20037;-82
2021/04/30 04:48:11;;;;;;;30.75;19.60;;;;;;;;;;5034897;28;20057;-82
2021/04/30 04:50:37;;;;;;;34.40;19.77;;;;;;;;;;5051510;28;20080;-82
2021/04/30 04:53:03;;;;;;;32.28;19.73;;;;;;;;;;5051430;28;20484;-82
2021/04/30 04:55:29;;;;;;;41.22;21.63;;;;;;;;;;5051439;28;20039;-81
2021/04/30 04:57:55;;;;;;;34.92;20.42;;;;;;;;;;5051366;28;20090;-82
2021/04/30 05:00:21;;;;;;;34.25;19.63;;;;;;;;;;5051324;28;20098;-82
2021/04/30 05:02:47;;;;;;;29.77;18.95;;;;;;;;;;5051213;28;20039;-82
2021/04/30 05:05:15;;;;;;;26.90;16.42;;;;;;;;;;5051270;28;20107;-81
2021/04/30 05:07:41;;;;;;;34.95;20.38;;;;;;;;;;5052370;28;20427;-82
2021/04/30 05:10:07;;;;;;;31.02;17.45;;;;;;;;;;5051149;28;20052;-82
2021/04/30 05:12:33;;;;;;;37.67;21.10;;;;;;;;;;5052308;28;20041;-82
2021/04/30 05:14:59;;;;;;;44.75;22.85;;;;;;;;;;5034651;28;20033;-82
2021/04/30 05:17:25;;;;;;;30.88;19.50;;;;;;;;;;5051014;28;20051;-82
2021/04/30 05:19:51;;;;;;;32.20;19.58;;;;;;;;;;5052193;28;20456;-82
2021/04/30 05:22:18;;;;;;;30.17;17.88;;;;;;;;;;5052213;28;20087;-82
2021/04/30 05:24:44;;;;;;;31.58;18.85;;;;;;;;;;5034659;28;20115;-82
2021/04/30 05:27:10;;;;;;;29.88;18.48;;;;;;;;;;5051008;28;20037;-82
2021/04/30 05:29:39;;;;;;;38.33;20.40;;;;;;;;;;5050888;28;20098;-82
2021/04/30 05:32:05;;;;;;;28.40;17.35;;;;;;;;;;5050794;28;20048;-81
2021/04/30 05:34:31;;;;;;;29.25;17.83;;;;;;;;;;5050689;28;20090;-82
2021/04/30 05:36:57;;;;;;;36.10;19.75;;;;;;;;;;5050688;28;20115;-82
2021/04/30 05:39:23;;;;;;;35.38;19.48;;;;;;;;;;5052083;28;20555;-82
2021/04/30 05:41:49;;;;;;;32.30;19.17;;;;;;;;;;5050908;28;20406;-82
2021/04/30 05:44:15;;;;;;;29.63;16.50;;;;;;;;;;5050947;28;20108;-82
2021/04/30 05:46:41;;;;;;;31.20;17.40;;;;;;;;;;5050925;28;20041;-82
2021/04/30 05:49:07;;;;;;;42.15;21.50;;;;;;;;;;5051133;28;20048;-82
2021/04/30 05:51:33;;;;;;;33.85;18.83;;;;;;;;;;5051949;28;20039;-82
2021/04/30 05:53:59;;;;;;;34.20;19.42;;;;;;;;;;5050696;28;20037;-82
2021/04/30 05:56:25;;;;;;;32.33;18.92;;;;;;;;;;5051774;28;20068;-81
2021/04/30 05:58:51;;;;;;;34.20;18.25;;;;;;;;;;5050674;28;20037;-82
2021/04/30 06:01:17;;;;;;;26.25;15.23;;;;;;;;;;5050577;28;20584;-82
2021/04/30 06:03:43;;;;;;;41.65;18.45;;;;;;;;;;5051936;28;20073;-82
2021/04/30 06:06:10;;;;;;;24.95;15.55;;;;;;;;;;5051608;28;20041;-82
2021/04/30 06:08:36;;;;;;;36.25;18.48;;;;;;;;;;5050604;28;20090;-81
2021/04/30 06:11:02;;;;;;;27.90;16.50;;;;;;;;;;5050534;28;20051;-82
2021/04/30 06:13:29;;;;;;;28.23;15.35;;;;;;;;;;5051731;28;20041;-82
2021/04/30 06:15:55;;;;;;;39.03;19.38;;;;;;;;;;5050314;28;20045;-82
2021/04/30 06:18:21;;;;;;;32.58;17.20;;;;;;;;;;5051533;28;20067;-82
2021/04/30 06:20:47;;;;;;;31.15;16.98;;;;;;;;;;5051786;28;20560;-83
2021/04/30 06:23:14;;;;;;;32.78;15.73;;;;;;;;;;5051734;28;20039;-83
2021/04/30 06:25:40;;;;;;;39.53;17.85;;;;;;;;;;5033946;28;20115;-83
2021/04/30 06:28:06;;;;;;;31.77;16.15;;;;;;;;;;5050201;28;20120;-83
2021/04/30 06:30:32;;;;;;;25.60;14.73;;;;;;;;;;5051497;28;20049;-83
2021/04/30 06:32:58;;;;;;;33.15;16.40;;;;;;;;;;5051556;28;20037;-81
2021/04/30 06:35:24;;;;;;;28.30;14.82;;;;;;;;;;5050401;28;20396;-81
2021/04/30 06:37:50;;;;;;;31.55;16.35;;;;;;;;;;5033572;28;20053;-81
2021/04/30 06:40:16;;;;;;;32.03;16.15;;;;;;;;;;5033940;28;20091;-81
2021/04/30 06:42:43;;;;;;;30.63;17.02;;;;;;;;;;5051380;28;20041;-81
2021/04/30 06:45:09;;;;;;;30.33;17.08;;;;;;;;;;5051387;28;20412;-81
2021/04/30 06:47:36;;;;;;;28.73;15.48;;;;;;;;;;5054934;28;20033;-81
2021/04/30 06:50:02;;;;;;;27.35;16.10;;;;;;;;;;5053808;28;20052;-81
2021/04/30 06:52:28;;;;;;;28.58;15.55;;;;;;;;;;5053781;28;20060;-81
2021/04/30 06:54:54;;;;;;;31.58;15.88;;;;;;;;;;5053718;28;20033;-81
2021/04/30 06:57:20;;;;;;;26.45;16.25;;;;;;;;;;5054678;28;20049;-81
2021/04/30 06:59:46;;;;;;;32.28;17.17;;;;;;;;;;5054890;28;20071;-81
2021/04/30 07:02:12;;;;;;;29.55;15.85;;;;;;;;;;5054835;28;20033;-81
2021/04/30 07:04:38;;;;;;;25.67;14.77;;;;;;;;;;5037025;28;20498;-81
2021/04/30 07:07:05;;;;;;;25.92;14.43;;;;;;;;;;5054533;28;20041;-81
2021/04/30 07:09:31;;;;;;;28.77;15.45;;;;;;;;;;5053414;28;20135;-81
2021/04/30 07:11:57;;;;;;;27.40;14.95;;;;;;;;;;5054548;28;20116;-81
2021/04/30 07:14:23;;;;;;;31.30;14.35;;;;;;;;;;5053360;28;20047;-81
2021/04/30 07:16:50;;;;;;;25.92;14.20;;;;;;;;;;5054520;28;20090;-81
2021/04/30 07:19:16;;;;;;;25.20;14.73;;;;;;;;;;5054523;28;20400;-81
2021/04/30 07:21:42;;;;;;;27.17;14.20;;;;;;;;;;5054428;28;20037;-81
2021/04/30 07:24:08;;;;;;;19.90;12.70;;;;;;;;;;5054420;28;20090;-81
2021/04/30 07:26:34;;;;;;;23.33;12.48;;;;;;;;;;5054067;28;20110;-81
2021/04/30 07:29:00;;;;;;;20.30;11.93;;;;;;;;;;5053216;28;20033;-81
2021/04/30 07:31:26;;;;;;;24.15;12.55;;;;;;;;;;5053042;28;20041;-81
2021/04/30 07:33:52;;;;;;;20.27;11.68;;;;;;;;;;5054198;28;20530;-81
2021/04/30 07:36:18;;;;;;;21.60;12.20;;;;;;;;;;5053052;28;20083;-81
2021/04/30 07:38:44;;;;;;;19.70;12.05;;;;;;;;;;5052728;28;20128;-81
2021/04/30 07:41:11;;;;;;;17.83;11.30;;;;;;;;;;5053848;28;20045;-81
2021/04/30 07:43:37;;;;;;;20.05;11.63;;;;;;;;;;5052834;28;20384;-81
2021/04/30 07:46:03;;;;;;;20.33;11.57;;;;;;;;;;5036182;28;20108;-81
2021/04/30 07:48:29;;;;;;;19.73;11.73;;;;;;;;;;5052836;28;20053;-81
2021/04/30 07:50:55;;;;;;;23.13;12.20;;;;;;;;;;5052682;28;20076;-81
2021/04/30 07:53:21;;;;;;;23.17;12.52;;;;;;;;;;5052757;28;20037;-81
2021/04/30 07:55:47;;;;;;;22.50;11.35;;;;;;;;;;5052572;28;20495;-81
2021/04/30 07:58:13;;;;;;;19.90;12.27;;;;;;;;;;5052414;28;20481;-81
2021/04/30 08:00:39;;;;;;;21.88;11.80;;;;;;;;;;5053642;28;20527;-81
2021/04/30 08:03:05;;;;;;;24.92;11.63;;;;;;;;;;5052441;28;20044;-81
2021/04/30 08:05:31;;;;;;;23.08;11.75;;;;;;;;;;5053516;28;20112;-81
2021/04/30 08:08:03;;;;;;;23.73;11.63;;;;;;;;;;5052120;28;20480;-81
2021/04/30 08:10:29;;;;;;;19.20;10.82;;;;;;;;;;5052255;28;20048;-80
2021/04/30 08:12:55;;;;;;;21.65;11.60;;;;;;;;;;5053419;28;20041;-81
2021/04/30 08:15:21;;;;;;;17.90;11.23;;;;;;;;;;5052383;28;20454;-82
2021/04/30 08:17:47;;;;;;;20.10;11.05;;;;;;;;;;5053317;28;20041;-81
2021/04/30 08:20:13;;;;;;;18.75;10.65;;;;;;;;;;5053297;28;20495;-81
2021/04/30 08:22:40;;;;;;;26.55;12.48;;;;;;;;;;5053190;28;20044;-82
2021/04/30 08:25:06;;;;;;;19.17;11.38;;;;;;;;;;5053145;28;20475;-81
2021/04/30 08:27:32;;;;;;;21.02;11.18;;;;;;;;;;5051753;28;20067;-81
2021/04/30 08:29:58;;;;;;;22.05;12.40;;;;;;;;;;5051969;28;20033;-81
2021/04/30 08:32:24;;;;;;;21.35;11.73;;;;;;;;;;5051831;28;20549;-81
2021/04/30 08:34:50;;;;;;;24.08;11.45;;;;;;;;;;5051930;28;20095;-81
2021/04/30 08:37:16;;;;;;;26.40;12.32;;;;;;;;;;5051570;28;20060;-81
2021/04/30 08:39:42;;;;;;;19.67;11.45;;;;;;;;;;5052774;28;20041;-81
2021/04/30 08:42:09;;;;;;;22.60;11.80;;;;;;;;;;5052753;28;20062;-81
2021/04/30 08:44:36;;;;;;;21.75;11.93;;;;;;;;;;5052819;28;20484;-81
2021/04/30 08:47:02;;;;;;;18.42;11.15;;;;;;;;;;5052625;28;20048;-81
2021/04/30 08:49:30;;;;;;;20.15;10.98;;;;;;;;;;5052726;28;20039;-81
2021/04/30 08:51:56;;;;;;;25.20;13.35;;;;;;;;;;5051465;28;20044;-81
2021/04/30 08:54:22;;;;;;;21.90;11.98;;;;;;;;;;5051654;28;20060;-81
2021/04/30 08:56:51;;;;;;;19.33;12.10;;;;;;;;;;5051346;28;20037;-81
2021/04/30 08:59:17;;;;;;;20.17;11.68;;;;;;;;;;5035332;28;20468;-81
2021/04/30 09:01:44;;;;;;;18.52;11.68;;;;;;;;;;5052524;28;20355;-81
2021/04/30 09:04:11;;;;;;;18.90;10.98;;;;;;;;;;5052499;28;20458;-81
2021/04/30 09:06:38;;;;;;;18.77;12.25;;;;;;;;;;5051031;28;20185;-81
2021/04/30 09:09:08;;;;;;;21.83;11.38;;;;;;;;;;5050850;28;20049;-81
2021/04/30 09:11:38;;;;;;;20.63;12.07;;;;;;;;;;5051140;28;20068;-81
2021/04/30 09:14:20;;;;;;;20.50;12.45;;;;;;;;;;5052348;28;20064;-81
2021/04/30 09:17:01;;;;;;;22.67;12.23;;;;;;;;;;5052188;28;20404;-81
2021/04/30 09:19:40;;;;;;;22.92;11.48;;;;;;;;;;5052190;28;20366;-81
2021/04/30 09:22:06;;;;;;;19.08;12.35;;;;;;;;;;5052248;28;20048;-81
2021/04/30 09:24:32;;;;;;;26.70;13.02;;;;;;;;;;5034269;28;20412;-81
2021/04/30 09:26:58;;;;;;;21.20;12.13;;;;;;;;;;5051990;28;20043;-81
2021/04/30 09:29:26;;;;;;;21.63;12.00;;;;;;;;;;5050973;28;20076;-81
2021/04/30 09:31:52;;;;;;;24.23;12.07;;;;;;;;;;5050967;28;20044;-81
2021/04/30 09:34:26;;;;;;;20.95;13.30;;;;;;;;;;5052059;28;20037;-81
2021/04/30 09:37:12;;;;;;;21.35;12.57;;;;;;;;;;5050859;28;20037;-81
2021/04/30 09:39:48;;;;;;;19.27;13.15;;;;;;;;;;5050807;28;20386;-81
2021/04/30 09:42:17;;;;;;;20.73;11.88;;;;;;;;;;5050811;28;20072;-81
2021/04/30 09:44:43;;;;;;;25.40;12.07;;;;;;;;;;5050691;28;20033;-81
2021/04/30 09:47:16;;;;;;;19.35;11.70;;;;;;;;;;5050600;28;20043;-81
2021/04/30 09:49:43;;;;;;;24.25;12.40;;;;;;;;;;5050686;28;20037;-81
2021/04/30 09:52:09;;;;;;;18.80;10.68;;;;;;;;;;5051809;28;20116;-81
2021/04/30 09:54:38;;;;;;;19.35;11.05;;;;;;;;;;5051696;28;20041;-81
2021/04/30 09:57:05;;;;;;;20.30;12.15;;;;;;;;;;5051668;28;20091;-81
2021/04/30 09:59:32;;;;;;;18.92;11.45;;;;;;;;;;5050567;28;20041;-81
2021/04/30 10:02:03;;;;;;;20.05;11.45;;;;;;;;;;5050565;28;20037;-81
2021/04/30 10:04:34;;;;;;;16.80;11.00;;;;;;;;;;5051703;28;20045;-81
2021/04/30 10:07:00;;;;;;;21.10;11.60;;;;;;;;;;5050231;28;20544;-81
2021/04/30 10:09:27;;;;;;;17.75;10.95;;;;;;;;;;5050637;28;20044;-81
2021/04/30 10:11:53;;;;;;;15.95;10.98;;;;;;;;;;5050737;28;20060;-81
2021/04/30 10:14:23;;;;;;;18.90;11.13;;;;;;;;;;5050579;28;20484;-81
2021/04/30 10:16:49;;;;;;;17.85;10.52;;;;;;;;;;5034176;28;20041;-81
2021/04/30 10:19:15;;;;;;;15.35;9.25;;;;;;;;;;5051610;28;20041;-81
2021/04/30 10:21:41;;;;;;;16.63;9.20;;;;;;;;;;5037586;28;20037;-81
2021/04/30 10:24:13;;;;;;;15.20;9.65;;;;;;;;;;5054293;28;20538;-81
2021/04/30 10:26:39;;;;;;;15.75;8.68;;;;;;;;;;5054067;28;20044;-81
2021/04/30 10:29:06;;;;;;;13.45;9.57;;;;;;;;;;5054276;28;20048;-81
2021/04/30 10:31:33;;;;;;;17.80;9.55;;;;;;;;;;5055427;28;20041;-81
2021/04/30 10:34:00;;;;;;;13.40;8.73;;;;;;;;;;5055261;28;20040;-81
2021/04/30 10:36:29;;;;;;;16.08;9.02;;;;;;;;;;5055264;28;20037;-81
2021/04/30 10:38:56;;;;;;;13.63;8.88;;;;;;;;;;5037915;28;20531;-81
2021/04/30 10:41:29;;;;;;;14.60;10.65;;;;;;;;;;5054045;28;20477;-81
2021/04/30 10:44:13;;;;;;;14.30;9.25;;;;;;;;;;5055251;28;20097;-81
2021/04/30 10:46:39;;;;;;;11.15;9.02;;;;;;;;;;5054769;28;20123;-81
2021/04/30 10:49:06;;;;;;;13.50;9.85;;;;;;;;;;5053850;28;20041;-81
2021/04/30 10:51:32;;;;;;;18.75;9.82;;;;;;;;;;5054995;28;20032;-81
2021/04/30 10:54:17;;;;;;;14.75;9.95;;;;;;;;;;5053906;28;20124;-81
2021/04/30 10:56:43;;;;;;;17.27;10.05;;;;;;;;;;5054794;28;20047;-81
2021/04/30 10:59:09;;;;;;;15.82;9.68;;;;;;;;;;5054713;28;20037;-81
2021/04/30 11:01:37;;;;;;;14.95;8.85;;;;;;;;;;5053589;28;20063;-81
2021/04/30 11:04:15;;;;;;;14.15;9.35;;;;;;;;;;5053519;28;20503;-81
2021/04/30 11:06:43;;;;;;;14.45;9.43;;;;;;;;;;5054488;28;20437;-81
2021/04/30 11:09:13;;;;;;;15.65;9.40;;;;;;;;;;5053441;28;20484;-81
2021/04/30 11:11:40;;;;;;;13.48;9.93;;;;;;;;;;5053265;28;20051;-82
2021/04/30 11:14:18;;;;;;;14.75;9.68;;;;;;;;;;5053483;28;20119;-81
2021/04/30 11:16:48;;;;;;;13.77;8.63;;;;;;;;;;5054336;28;20048;-81
2021/04/30 11:19:15;;;;;;;11.90;8.50;;;;;;;;;;5054450;28;20055;-81
2021/04/30 11:21:41;;;;;;;12.40;9.20;;;;;;;;;;5053072;28;20492;-81
2021/04/30 11:24:26;;;;;;;14.05;8.90;;;;;;;;;;5053117;28;20093;-82
2021/04/30 11:26:52;;;;;;;15.45;9.60;;;;;;;;;;5054150;28;20052;-82
2021/04/30 11:29:18;;;;;;;12.95;9.15;;;;;;;;;;5054246;28;20037;-82
2021/04/30 11:31:44;;;;;;;13.75;8.88;;;;;;;;;;5052595;28;20041;-82
2021/04/30 11:34:22;;;;;;;14.25;9.00;;;;;;;;;;5038186;28;20480;-81
2021/04/30 11:36:51;;;;;;;14.88;9.15;;;;;;;;;;5053801;28;20041;-81
2021/04/30 11:39:21;;;;;;;12.05;8.68;;;;;;;;;;5052952;28;20041;-82
2021/04/30 11:41:47;;;;;;;13.13;9.20;;;;;;;;;;5054032;28;20033;-82
2021/04/30 11:44:13;;;;;;;14.50;9.40;;;;;;;;;;5054014;28;20044;-81
2021/04/30 11:46:39;;;;;;;15.93;9.45;;;;;;;;;;5052622;28;20500;-81
2021/04/30 11:49:05;;;;;;;11.77;9.15;;;;;;;;;;5053786;28;20033;-81
2021/04/30 11:51:31;;;;;;;12.45;9.30;;;;;;;;;;5053886;28;20048;-81
2021/04/30 11:53:58;;;;;;;12.70;9.27;;;;;;;;;;5052790;28;20037;-81
2021/04/30 11:56:30;;;;;;;14.50;10.23;;;;;;;;;;5053673;28;20487;-81
2021/04/30 11:58:57;;;;;;;;;;;;;;;;;;5054581;28;20064;-81
2021/04/30 12:01:25;;;;;;;13.30;9.77;;;;;;;;;;5053737;28;20287;-82
2021/04/30 12:03:53;;;;;;;15.20;10.10;;;;;;;;;;5053544;28;20083;-82
2021/04/30 12:06:20;;;;;;;13.95;9.25;;;;;;;;;;5053534;28;20120;-81
2021/04/30 12:08:46;;;;;;;13.43;9.50;;;;;;;;;;5052303;28;20064;-81
2021/04/30 12:11:25;;;;;;;14.10;9.88;;;;;;;;;;5052346;28;20037;-81
2021/04/30 12:13:52;;;;;;;16.52;10.55;;;;;;;;;;5052585;28;20255;-81
2021/04/30 12:16:18;;;;;;;14.02;10.20;;;;;;;;;;5052152;28;20369;-82
2021/04/30 12:18:44;;;;;;;16.50;10.50;;;;;;;;;;5052197;28;20494;-81
2021/04/30 12:21:10;;;;;;;14.30;10.05;;;;;;;;;;5052113;28;20052;-82
2021/04/30 12:23:36;;;;;;;15.93;10.63;;;;;;;;;;5052103;28;20041;-81
2021/04/30 12:26:03;;;;;;;17.40;9.95;;;;;;;;;;5052087;28;20482;-81
2021/04/30 12:28:33;;;;;;;13.90;10.20;;;;;;;;;;5052346;28;20040;-81
2021/04/30 12:31:03;;;;;;;16.60;11.05;;;;;;;;;;5053105;28;20048;-81
2021/04/30 12:33:48;;;;;;;13.18;10.23;;;;;;;;;;5052018;28;20041;-81
2021/04/30 12:36:16;;;;;;;13.48;10.90;;;;;;;;;;5051810;28;20503;-81
2021/04/30 12:38:42;;;;;;;16.40;10.95;;;;;;;;;;5052746;28;20106;-82
2021/04/30 12:41:12;;;;;;;15.70;11.40;;;;;;;;;;5052735;28;20045;-81
2021/04/30 12:43:39;;;;;;;14.43;10.10;;;;;;;;;;5034449;28;20065;-81
2021/04/30 12:46:22;;;;;;;16.75;11.27;;;;;;;;;;5051557;28;20037;-81
2021/04/30 12:48:50;;;;;;;;;;;;;;;;;;5053120;28;20033;-81
2021/04/30 12:51:17;;;;;;;16.98;11.63;;;;;;;;;;5052713;28;19921;-81
2021/04/30 12:53:46;;;;;;;16.17;11.73;;;;;;;;;;5035322;28;20041;-81
2021/04/30 12:56:33;;;;;;;18.08;12.13;;;;;;;;;;5051452;28;20044;-81
2021/04/30 12:59:05;;;;;;;15.80;10.43;;;;;;;;;;5052473;28;20123;-81
2021/04/30 13:01:31;;;;;;;16.05;12.18;;;;;;;;;;5052715;28;20093;-81
2021/04/30 13:03:57;;;;;;;17.35;12.15;;;;;;;;;;5034815;28;20204;-81
2021/04/30 13:06:23;;;;;;;15.25;11.60;;;;;;;;;;5052432;28;20533;-82
2021/04/30 13:08:49;;;;;;;16.33;11.48;;;;;;;;;;5051255;28;20033;-81
2021/04/30 13:11:16;;;;;;;17.30;12.40;;;;;;;;;;5051226;28;20041;-81
2021/04/30 13:13:58;;;;;;;15.88;11.45;;;;;;;;;;5051249;28;20189;-81
2021/04/30 13:16:37;;;;;;;19.55;11.45;;;;;;;;;;5052319;28;20356;-81
2021/04/30 13:19:04;;;;;;;14.52;11.32;;;;;;;;;;5051218;28;20534;-81
2021/04/30 13:21:30;;;;;;;16.73;11.13;;;;;;;;;;5051333;28;20114;-81
2021/04/30 13:24:08;;;;;;;16.35;10.63;;;;;;;;;;5051093;28;20041;-81
2021/04/30 13:26:34;;;;;;;15.63;12.07;;;;;;;;;;5051057;28;20040;-82
2021/04/30 13:29:27;;;;;;;15.45;11.68;;;;;;;;;;5050959;28;20040;-81
2021/04/30 13:32:01;;;;;;;14.32;10.93;;;;;;;;;;5050980;28;20045;-82
2021/04/30 13:34:35;;;;;;;18.67;11.23;;;;;;;;;;5052037;28;20037;-81
2021/04/30 13:37:02;;;;;;;15.40;11.65;;;;;;;;;;5050690;28;20045;-82
2021/04/30 13:39:29;;;;;;;14.55;12.10;;;;;;;;;;5050764;28;20041;-81
2021/04/30 13:41:55;;;;;;;14.05;10.10;;;;;;;;;;5034284;28;20311;-81
2021/04/30 13:44:21;;;;;;;13.02;9.50;;;;;;;;;;5034324;28;20037;-81
2021/04/30 13:46:48;;;;;;;11.07;9.65;;;;;;;;;;5050665;28;20053;-81
2021/04/30 13:49:14;;;;;;;13.02;10.80;;;;;;;;;;5050801;28;20037;-81
2021/04/30 13:51:40;;;;;;;13.73;10.30;;;;;;;;;;5051972;28;20484;-81
2021/04/30 13:54:06;;;;;;;14.52;10.77;;;;;;;;;;5052088;28;20033;-82
2021/04/30 13:56:32;;;;;;;16.85;12.10;;;;;;;;;;5038432;28;20063;-81
2021/04/30 13:59:03;;;;;;;14.52;11.90;;;;;;;;;;5054882;28;20033;-82
2021/04/30 14:01:30;;;;;;;17.00;12.75;;;;;;;;;;5056341;28;20075;-81
2021/04/30 14:03:56;;;;;;;18.35;12.07;;;;;;;;;;5054804;28;20033;-81
2021/04/30 14:06:23;;;;;;;19.02;14.00;;;;;;;;;;5055742;28;20037;-82
2021/04/30 14:08:49;;;;;;;17.38;14.48;;;;;;;;;;5055626;28;20044;-81
2021/04/30 14:11:15;;;;;;;18.55;14.18;;;;;;;;;;5054580;28;20045;-81
2021/04/30 14:13:41;;;;;;;17.65;14.38;;;;;;;;;;5054618;28;20037;-81
2021/04/30 14:16:07;;;;;;;14.57;11.02;;;;;;;;;;5054425;28;20546;-81
2021/04/30 14:18:35;;;;;;;14.10;10.10;;;;;;;;;;5055797;28;20057;-81